Time;durP1;ratioP1;P1;durP2;ratioP2;P2;SDS_P1;SDS_P2;PMS_P1;PMS_P2;Temp;Humidity;BMP_temperature;BMP_pressure;BME280_temperature;BME280_humidity;BME280_pressure;Samples;Min_cycle;Max_cycle;Signal;HPM_P1;HPM_P2
2021/08/27 03:16:09;;;;;;;;;;;;;;;4.67;94.93;99563.94;4968556;28;19981;-85
2021/08/27 03:18:41;;;;;;;;;;;;;;;4.58;94.90;99561.53;4973264;28;19944;-85
2021/08/27 03:21:22;;;;;;;;;;;;;;;4.59;95.36;99559.78;4982640;28;19922;-85
2021/08/27 03:23:48;;;;;;;;;;;;;;;4.63;95.29;99558.81;4975864;28;19965;-87
2021/08/27 03:26:18;;;;;;;;;;;;;;;4.83;96.25;99558.34;4974504;28;19944;-87
2021/08/27 03:28:48;;;;;;;;;;;;;;;4.86;99.33;99559.13;4972766;28;20340;-87
2021/08/27 03:31:13;;;;;;;;;;;;;;;5.03;100.00;99557.91;4973725;28;20005;-86
2021/08/27 03:33:39;;;;;;;;;;;;;;;5.08;100.00;99558.66;4975978;28;20008;-86
2021/08/27 03:36:05;;;;;;;;;;;;;;;5.07;100.00;99556.91;4974584;28;20389;-86
2021/08/27 03:38:30;;;;;;;;;;;;;;;5.03;100.00;99561.38;4975664;28;19925;-86
2021/08/27 03:40:56;;;;;;;;;;;;;;;4.95;100.00;99562.47;4974385;28;19918;-88
2021/08/27 03:43:22;;;;;;;;;;;;;;;5.03;100.00;99557.91;4974606;28;19928;-90
2021/08/27 03:45:49;;;;;;;;;;;;;;;5.15;100.00;99554.94;4975861;28;20385;-89
2021/08/27 03:48:18;;;;;;;;;;;;;;;5.16;100.00;99556.69;4975711;28;20020;-87
2021/08/27 03:50:43;;;;;;;;;;;;;;;5.23;100.00;99555.66;4974633;28;19925;-88
2021/08/27 03:53:09;;;;;;;;;;;;;;;5.27;100.00;99559.91;4974557;28;19922;-88
2021/08/27 03:55:35;;;;;;;;;;;;;;;5.18;100.00;99562.75;4975521;28;19918;-89
2021/08/27 03:58:01;;;;;;;;;;;;;;;5.16;100.00;99561.94;4973317;28;20224;-89
2021/08/27 04:00:27;;;;;;;;;;;;;;;5.30;100.00;99564.25;4974329;28;19922;-87
2021/08/27 04:02:53;;;;;;;;;;;;;;;5.91;100.00;99567.03;4973786;28;19921;-87
2021/08/27 04:05:20;;;;;;;;;;;;;;;6.09;100.00;99567.47;4975355;28;19941;-86
2021/08/27 04:07:45;;;;;;;;;;;;;;;6.20;100.00;99578.53;4973292;28;19918;-86
2021/08/27 04:10:12;;;;;;;;;;;;;;;6.10;100.00;99575.31;4981767;28;20289;-87
2021/08/27 04:12:39;;;;;;;;;;;;;;;5.87;100.00;99575.03;4975239;28;20320;-83
2021/08/27 04:15:05;;;;;;;;;;;;;;;5.79;100.00;99577.88;4973690;28;20005;-87
2021/08/27 04:17:30;;;;;;;;;;;;;;;5.66;100.00;99572.06;4973709;28;20009;-84
2021/08/27 04:19:56;;;;;;;;;;;;;;;5.64;100.00;99579.16;4975052;28;19949;-83
2021/08/27 04:22:21;;;;;;;;;;;;;;;5.50;100.00;99576.84;4973889;28;19933;-84
2021/08/27 04:24:46;;;;;;;;;;;;;;;5.31;100.00;99576.47;4974915;28;20267;-86
2021/08/27 04:27:12;;;;;;;;;;;;;;;5.24;100.00;99581.00;4974761;28;19992;-84
2021/08/27 04:29:37;;;;;;;;;;;;;;;5.29;100.00;99586.16;4971219;28;19929;-83
2021/08/27 04:32:02;;;;;;;;;;;;;;;5.21;100.00;99591.59;4973456;28;19965;-87
2021/08/27 04:34:27;;;;;;;;;;;;;;;5.25;100.00;99593.25;4974912;28;19968;-82
2021/08/27 04:36:53;;;;;;;;;;;;;;;5.17;100.00;99589.94;4974657;28;19918;-85
2021/08/27 04:39:18;;;;;;;;;;;;;;;5.09;100.00;99591.91;4973044;28;19965;-82
2021/08/27 04:41:44;;;;;;;;;;;;;;;5.11;100.00;99592.72;4973240;28;19922;-86
2021/08/27 04:44:09;;;;;;;;;;;;;;;5.08;100.00;99590.16;4973133;28;19918;-81
2021/08/27 07:41:49;;;;;;;;;;;;;;;4.87;98.85;99714.94;4953774;28;19934;-83
2021/08/27 07:44:14;;;;;;;;;;;;;;;4.87;98.67;99715.78;4955159;29;19922;-83
2021/08/27 07:46:39;;;;;;;;;;;;;;;4.88;98.68;99720.16;4955105;29;19926;-83
2021/08/27 07:49:05;;;;;;;;;;;;;;;5.03;99.06;99718.94;4955204;29;19918;-86
2021/08/27 07:51:30;;;;;;;;;;;;;;;4.94;99.04;99715.66;4956463;28;19919;-83
2021/08/27 07:53:55;;;;;;;;;;;;;;;4.96;99.21;99716.47;4953534;29;19970;-83
2021/08/27 07:56:21;;;;;;;;;;;;;;;4.96;98.93;99713.84;4956241;29;20278;-87
2021/08/27 07:58:46;;;;;;;;;;;;;;;4.97;98.88;99723.47;4954777;29;20017;-87
2021/08/27 08:01:11;;;;;;;;;;;;;;;4.97;98.88;99720.84;4954937;29;19918;-88
2021/08/27 08:03:36;;;;;;;;;;;;;;;5.05;99.36;99726.78;4955816;28;20289;-83
2021/08/27 08:06:02;;;;;;;;;;;;;;;5.09;99.08;99724.06;4953896;29;19922;-84
2021/08/27 08:08:27;;;;;;;;;;;;;;;5.11;97.96;99724.03;4953297;29;20367;-85
2021/08/27 08:10:52;;;;;;;;;;;;;;;5.08;97.94;99721.47;4955849;29;19965;-83
2021/08/27 08:13:18;;;;;;;;;;;;;;;4.99;97.85;99716.41;4954650;29;19922;-85
2021/08/27 08:15:43;;;;;;;;;;;;;;;5.13;97.69;99724.88;4955786;28;19919;-86
2021/08/27 08:18:08;;;;;;;;;;;;;;;5.12;97.75;99723.13;4954377;29;19918;-85
2021/08/27 08:20:33;;;;;;;;;;;;;;;5.14;97.26;99718.72;4955766;29;19988;-84
2021/08/27 08:22:59;;;;;;;;;;;;;;;5.11;96.96;99729.28;4954252;29;19918;-86
2021/08/27 08:25:24;;;;;;;;;;;;;;;5.05;97.64;99726.78;4952965;29;20337;-87
2021/08/27 08:27:49;;;;;;;;;;;;;;;5.08;97.66;99726.72;4954145;29;19925;-86
2021/08/27 08:30:15;;;;;;;;;;;;;;;5.08;96.88;99727.59;4954501;29;19930;-85
2021/08/27 08:32:40;;;;;;;;;;;;;;;5.07;96.88;99728.50;4954191;29;19918;-87
2021/08/27 08:35:06;;;;;;;;;;;;;;;5.05;97.21;99729.41;4955472;29;19923;-87
2021/08/27 08:37:31;;;;;;;;;;;;;;;5.02;97.56;99732.09;4955174;29;19985;-85
2021/08/27 08:39:57;;;;;;;;;;;;;;;5.18;97.91;99730.88;4952526;29;19935;-86
2021/08/27 08:42:22;;;;;;;;;;;;;;;5.18;97.30;99732.66;4954018;29;19926;-87
2021/08/27 08:44:47;;;;;;;;;;;;;;;5.14;97.60;99739.75;4955247;29;19923;-87
2021/08/27 08:47:15;;;;;;;;;;;;;;;5.19;97.51;99739.66;4953956;29;19972;-84
2021/08/27 08:49:41;;;;;;;;;;;;;;;5.21;97.07;99743.94;4953709;29;19922;-86
2021/08/27 08:52:07;;;;;;;;;;;;;;;5.21;97.58;99733.44;4953828;29;20014;-87
2021/08/27 08:54:33;;;;;;;;;;;;;;;5.25;97.95;99740.38;4952443;29;19919;-86
2021/08/27 08:56:59;;;;;;;;;;;;;;;5.19;97.83;99743.13;4953638;29;19922;-86
2021/08/27 08:59:25;;;;;;;;;;;;;;;5.33;98.78;99758.59;4953637;29;19961;-85
2021/08/27 09:01:50;;;;;;;;;;;;;;;5.22;98.07;99750.09;4953546;29;19957;-88
2021/08/27 09:04:15;;;;;;;;;;;;;;;5.27;98.31;99754.31;4953665;29;20394;-86
2021/08/27 09:06:41;;;;;;;;;;;;;;;5.28;98.16;99750.81;4953490;29;19965;-88
2021/08/27 09:09:06;;;;;;;;;;;;;;;5.30;98.21;99748.16;4952003;29;19922;-87
2021/08/27 09:11:32;;;;;;;;;;;;;;;5.28;98.11;99745.56;4954785;28;19923;-85
2021/08/27 09:13:58;;;;;;;;;;;;;;;5.31;97.54;99743.75;4952636;29;19973;-87
2021/08/27 09:16:25;;;;;;;;;;;;;;;5.21;97.64;99754.44;4954154;28;19918;-84
2021/08/27 09:18:50;;;;;;;;;;;;;;;5.24;97.41;99745.66;4953322;29;19922;-84
2021/08/27 09:21:28;;;;;;;;;;;;;;;5.25;97.85;99740.38;4954704;28;19918;-84
2021/08/27 09:24:08;;;;;;;;;;;;;;;5.24;97.67;99740.41;4951741;29;20018;-87
2021/08/27 09:26:34;;;;;;;;;;;;;;;5.25;97.19;99745.63;4953099;29;20370;-85
2021/08/27 09:28:59;;;;;;;;;;;;;;;5.31;98.04;99749.88;4953171;29;20047;-86
2021/08/27 09:31:38;;;;;;;;;;;;;;;5.48;97.57;99744.25;4953229;29;19914;-86
2021/08/27 09:34:04;;;;;;;;;;;;;;;5.35;97.81;99745.44;4952800;29;19929;-85
2021/08/27 09:36:30;;;;;;;;;;;;;;;5.37;98.42;99743.63;4953189;29;19914;-85
2021/08/27 09:39:08;;;;;;;;;;;;;;;5.48;97.40;99735.50;4952997;28;19973;-85
2021/08/27 09:41:34;;;;;;;;;;;;;;;5.53;98.42;99742.38;4952544;29;19973;-87
2021/08/27 09:43:59;;;;;;;;;;;;;;;5.61;98.14;99737.78;4953456;29;20365;-86
2021/08/27 09:46:41;;;;;;;;;;;;;;;5.57;98.07;99746.66;4954202;29;19973;-86
2021/08/27 09:49:45;;;;;;;;;;;;;;;5.54;98.14;99732.75;4952693;29;19970;-87
2021/08/27 09:52:10;;;;;;;;;;;;;;;5.57;97.72;99738.78;4923742;29;19923;-85
2021/08/27 09:54:38;;;;;;;;;;;;;;;5.50;97.69;99739.81;4921791;29;20317;-88
2021/08/27 09:57:04;;;;;;;;;;;;;;;5.66;98.04;99734.22;4927607;29;19922;-86
2021/08/27 09:59:32;;;;;;;;;;;;;;;5.60;97.56;99730.81;4952628;29;19994;-86
2021/08/27 10:01:58;;;;;;;;;;;;;;;5.61;97.45;99736.94;4953910;29;20365;-86
2021/08/27 10:04:23;;;;;;;;;;;;;;;5.55;97.43;99747.59;4952748;29;20081;-86
2021/08/27 10:06:48;;;;;;;;;;;;;;;5.70;97.62;99743.75;4952653;29;20013;-87
2021/08/27 10:09:13;;;;;;;;;;;;;;;5.64;97.18;99747.38;4951249;29;19996;-87
2021/08/27 10:11:39;;;;;;;;;;;;;;;5.69;96.88;99745.50;4952615;29;20013;-87
2021/08/27 10:14:07;;;;;;;;;;;;;;;5.66;96.67;99744.72;4952519;29;20374;-86
2021/08/27 10:16:33;;;;;;;;;;;;;;;5.76;97.40;99740.97;4951841;29;19918;-87
2021/08/27 10:18:59;;;;;;;;;;;;;;;5.72;97.65;99740.19;4953578;29;20277;-87
2021/08/27 10:21:24;;;;;;;;;;;;;;;5.68;97.34;99738.53;4953770;28;20448;-87
2021/08/27 10:23:50;;;;;;;;;;;;;;;5.71;97.13;99740.22;4946861;29;19997;-88
2021/08/27 10:26:17;;;;;;;;;;;;;;;5.66;97.04;99731.56;4952304;28;19953;-86
2021/08/27 10:28:43;;;;;;;;;;;;;;;5.82;97.50;99738.19;4955605;29;20009;-86
2021/08/27 10:31:11;;;;;;;;;;;;;;;5.83;97.43;99739.94;4957512;28;20017;-87
2021/08/27 10:33:39;;;;;;;;;;;;;;;5.80;97.40;99737.38;4956358;29;20125;-87
2021/08/27 10:36:09;;;;;;;;;;;;;;;5.83;97.43;99747.81;4955617;29;19930;-86
2021/08/27 10:38:42;;;;;;;;;;;;;;;5.84;97.02;99731.16;4955746;29;19922;-87
2021/08/27 10:41:28;;;;;;;;;;;;;;;5.96;98.55;99738.75;4955656;29;19930;-87
2021/08/27 10:43:57;;;;;;;;;;;;;;;5.86;97.09;99731.97;4952328;29;19918;-87
2021/08/27 10:46:23;;;;;;;;;;;;;;;5.85;97.01;99729.38;4956219;29;19925;-87
2021/08/27 10:48:50;;;;;;;;;;;;;;;5.79;96.82;99726.00;4955994;29;19918;-88
2021/08/27 10:51:28;;;;;;;;;;;;;;;5.78;97.33;99728.66;4955954;29;19978;-88
2021/08/27 10:53:54;;;;;;;;;;;;;;;5.82;96.98;99725.94;4956022;28;19925;-87
2021/08/27 10:56:50;;;;;;;;;;;;;;;5.74;96.90;99727.00;4956111;29;19923;-87
2021/08/27 10:59:16;;;;;;;;;;;;;;;5.81;96.78;99721.56;4940848;29;19922;-86
2021/08/27 11:01:43;;;;;;;;;;;;;;;5.89;97.19;99726.63;4955827;29;19918;-87
2021/08/27 11:04:13;;;;;;;;;;;;;;;5.98;97.54;99715.94;4955742;29;20333;-87
2021/08/27 11:06:43;;;;;;;;;;;;;;;5.88;97.17;99726.66;4955460;29;20389;-87
2021/08/27 11:09:12;;;;;;;;;;;;;;;5.93;97.26;99724.78;4953946;29;19945;-88
2021/08/27 11:11:37;;;;;;;;;;;;;;;5.88;96.54;99724.91;4955126;29;19926;-89
2021/08/27 11:14:16;;;;;;;;;;;;;;;5.82;96.82;99719.78;4955393;29;20001;-87
2021/08/27 11:16:41;;;;;;;;;;;;;;;5.89;97.21;99731.91;4955251;29;19926;-88
2021/08/27 11:19:27;;;;;;;;;;;;;;;5.89;96.60;99731.00;4955621;29;19922;-89
2021/08/27 11:21:57;;;;;;;;;;;;;;;5.87;96.66;99728.44;4950132;29;19923;-88
2021/08/27 11:24:23;;;;;;;;;;;;;;;5.88;96.59;99724.91;4954395;29;19930;-88
2021/08/27 11:27:04;;;;;;;;;;;;;;;5.88;95.95;99722.25;4955520;29;19926;-88
2021/08/27 11:29:30;;;;;;;;;;;;;;;5.82;95.83;99727.66;4955158;29;19926;-88
2021/08/27 11:31:55;;;;;;;;;;;;;;;5.98;97.00;99733.44;4955387;29;20278;-89
2021/08/27 11:34:46;;;;;;;;;;;;;;;5.95;96.32;99731.75;4955398;29;19922;-87
2021/08/27 11:37:13;;;;;;;;;;;;;;;5.89;95.98;99726.63;4955052;29;19942;-88
2021/08/27 11:39:38;;;;;;;;;;;;;;;5.89;96.19;99734.53;4957975;28;20411;-88
2021/08/27 11:42:04;;;;;;;;;;;;;;;5.89;95.61;99729.25;4977699;28;20024;-89
2021/08/27 11:44:29;;;;;;;;;;;;;;;5.89;96.39;99728.38;4977724;28;19924;-89
2021/08/27 11:46:55;;;;;;;;;;;;;;;5.90;96.25;99725.72;4977803;28;19957;-86
2021/08/27 11:49:23;;;;;;;;;;;;;;;5.88;96.41;99722.25;4995004;28;19976;-89
2021/08/27 11:52:08;;;;;;;;;;;;;;;5.88;96.30;99722.25;4977552;28;19950;-89
2021/08/27 11:54:34;;;;;;;;;;;;;;;5.92;96.41;99721.31;4975587;28;19988;-88
2021/08/27 11:56:59;;;;;;;;;;;;;;;6.11;97.12;99715.59;4977356;28;20365;-88
2021/08/27 11:59:26;;;;;;;;;;;;;;;5.96;96.05;99715.06;4977250;28;19957;-89
2021/08/27 12:01:51;;;;;;;;;;;;;;;5.98;96.42;99715.94;4977336;28;19976;-88
2021/08/27 12:04:28;;;;;;;;;;;;;;;6.21;99.39;99727.63;4977051;28;19926;-88
2021/08/27 12:07:27;;;;;;;;;;;;;;;6.14;96.56;99720.78;4977094;28;19918;-89
2021/08/27 12:10:03;;;;;;;;;;;;;;;6.07;96.39;99714.81;4982965;28;19922;-88
2021/08/27 12:12:31;;;;;;;;;;;;;;;6.24;96.06;99721.41;4977331;28;19964;-89
2021/08/27 12:14:56;;;;;;;;;;;;;;;6.27;96.76;99722.19;4977191;28;19921;-86
2021/08/27 12:17:23;;;;;;;;;;;;;;;6.27;96.60;99732.72;4977088;28;19922;-88
2021/08/27 12:19:49;;;;;;;;;;;;;;;6.34;96.95;99726.38;4985088;28;20332;-88
2021/08/27 12:22:17;;;;;;;;;;;;;;;6.24;96.27;99735.44;4977137;28;19921;-87
2021/08/27 12:24:42;;;;;;;;;;;;;;;6.34;96.93;99731.66;4975884;28;19918;-88
2021/08/27 12:27:08;;;;;;;;;;;;;;;6.35;96.26;99733.38;4976781;28;20432;-88
2021/08/27 12:29:33;;;;;;;;;;;;;;;6.23;96.16;99731.06;4976948;28;19960;-89
2021/08/27 12:31:58;;;;;;;;;;;;;;;6.28;96.31;99733.59;4994359;28;19917;-88
2021/08/27 12:34:24;;;;;;;;;;;;;;;6.33;96.84;99735.19;4976804;28;19921;-88
2021/08/27 12:36:49;;;;;;;;;;;;;;;6.30;96.63;99724.75;4976828;28;20354;-89
2021/08/27 12:39:15;;;;;;;;;;;;;;;6.35;96.61;99724.59;4975320;28;19944;-89
2021/08/27 12:41:40;;;;;;;;;;;;;;;6.31;96.24;99734.34;4976281;28;20266;-87
2021/08/27 12:44:10;;;;;;;;;;;;;;;6.36;96.41;99728.97;4976373;28;20357;-89
2021/08/27 12:46:35;;;;;;;;;;;;;;;6.23;96.31;99735.47;4976039;28;19921;-88
2021/08/27 12:49:20;;;;;;;;;;;;;;;6.41;95.95;99727.06;4976453;28;20270;-87
2021/08/27 12:51:46;;;;;;;;;;;;;;;6.34;96.13;99723.75;4975800;28;19922;-88
2021/08/27 12:54:12;;;;;;;;;;;;;;;6.26;96.47;99728.34;4974747;28;19921;-89
2021/08/27 12:56:37;;;;;;;;;;;;;;;6.23;97.14;99723.16;4976308;28;20507;-89
2021/08/27 12:59:16;;;;;;;;;;;;;;;6.23;96.29;99719.69;4976358;28;19924;-88
2021/08/27 13:01:42;;;;;;;;;;;;;;;6.28;96.88;99723.06;4976074;28;19953;-88
2021/08/27 13:04:07;;;;;;;;;;;;;;;6.18;96.93;99717.16;4976351;28;20019;-88
2021/08/27 13:06:40;;;;;;;;;;;;;;;6.28;97.00;99720.41;4976134;28;19918;-87
2021/08/27 13:09:05;;;;;;;;;;;;;;;6.30;97.07;99711.59;4973960;28;20435;-88
2021/08/27 13:11:49;;;;;;;;;;;;;;;6.48;97.89;99714.63;4993385;28;19926;-88
2021/08/27 13:14:25;;;;;;;;;;;;;;;6.36;96.07;99714.03;4993591;28;19988;-88
2021/08/27 13:16:50;;;;;;;;;;;;;;;6.33;96.94;99711.50;4993291;28;19922;-87
2021/08/27 13:19:15;;;;;;;;;;;;;;;6.47;96.46;99718.16;4975965;28;20280;-87
2021/08/27 13:21:40;;;;;;;;;;;;;;;6.40;96.79;99716.59;4975619;28;20364;-87
2021/08/27 13:24:07;;;;;;;;;;;;;;;6.32;96.69;99707.16;4992076;28;19918;-88
2021/08/27 13:26:33;;;;;;;;;;;;;;;6.39;96.65;99710.47;4993176;28;19940;-89
2021/08/27 13:28:58;;;;;;;;;;;;;;;6.43;96.33;99703.34;4975697;28;20361;-88
2021/08/27 13:31:24;;;;;;;;;;;;;;;6.38;96.32;99694.72;4991457;28;19925;-88
2021/08/27 13:33:49;;;;;;;;;;;;;;;6.38;96.69;99692.94;4975574;28;20286;-88
2021/08/27 13:36:14;;;;;;;;;;;;;;;6.33;97.06;99695.72;4991481;28;20545;-87
2021/08/27 13:38:39;;;;;;;;;;;;;;;6.35;97.87;99691.28;4974319;28;20384;-88
2021/08/27 13:41:05;;;;;;;;;;;;;;;6.41;96.85;99686.75;4992756;28;19922;-87
2021/08/27 13:43:30;;;;;;;;;;;;;;;6.51;98.02;99685.56;4992841;28;20393;-88
2021/08/27 13:45:55;;;;;;;;;;;;;;;6.50;96.38;99691.75;4975657;28;19918;-88
2021/08/27 13:48:21;;;;;;;;;;;;;;;6.40;96.94;99687.63;4975397;28;19973;-88
2021/08/27 13:50:46;;;;;;;;;;;;;;;6.41;96.93;99684.97;4975341;28;19918;-87
2021/08/27 13:53:12;;;;;;;;;;;;;;;6.46;97.01;99684.84;4975342;28;19918;-88
2021/08/27 13:55:37;;;;;;;;;;;;;;;6.56;96.96;99683.69;4974063;28;19929;-89
2021/08/27 13:58:03;;;;;;;;;;;;;;;6.49;96.70;99680.38;4992738;28;19922;-87
2021/08/27 14:00:28;;;;;;;;;;;;;;;6.48;97.06;99678.66;4982596;28;19977;-88
2021/08/27 14:02:53;;;;;;;;;;;;;;;6.53;96.92;99665.34;4975194;28;19993;-89
2021/08/27 14:05:19;;;;;;;;;;;;;;;6.52;96.98;99667.09;4992454;28;19917;-87
2021/08/27 14:07:44;;;;;;;;;;;;;;;6.58;96.37;99660.81;4975177;28;19968;-87
2021/08/27 14:10:10;;;;;;;;;;;;;;;6.49;96.88;99663.69;4973821;28;19918;-87
2021/08/27 14:12:36;;;;;;;;;;;;;;;6.63;96.96;99666.81;4975103;28;19921;-88
2021/08/27 14:15:01;;;;;;;;;;;;;;;6.71;96.53;99661.31;4975154;28;19921;-89
2021/08/27 14:17:26;;;;;;;;;;;;;;;6.62;96.68;99654.56;4992500;28;20281;-87
2021/08/27 14:19:52;;;;;;;;;;;;;;;6.84;96.92;99664.47;4974868;28;19929;-87
2021/08/27 14:22:17;;;;;;;;;;;;;;;6.68;96.56;99664.91;4974944;28;19968;-88
2021/08/27 14:24:42;;;;;;;;;;;;;;;6.70;96.47;99656.94;4973718;28;19925;-87
2021/08/27 14:27:08;;;;;;;;;;;;;;;6.70;96.23;99652.56;4974983;28;20366;-87
2021/08/27 14:29:33;;;;;;;;;;;;;;;6.69;96.48;99649.97;4974861;28;19925;-86
2021/08/27 14:32:01;;;;;;;;;;;;;;;6.65;96.27;99654.47;4974803;28;20031;-87
2021/08/27 14:34:26;;;;;;;;;;;;;;;6.75;96.77;99656.81;4992227;28;20288;-87
2021/08/27 14:36:51;;;;;;;;;;;;;;;6.81;96.22;99657.53;4975008;28;19918;-86
2021/08/27 14:39:16;;;;;;;;;;;;;;;6.66;95.98;99657.97;4973428;28;19929;-86
2021/08/27 14:41:42;;;;;;;;;;;;;;;6.59;96.56;99654.66;4974533;28;20519;-86
2021/08/27 14:44:07;;;;;;;;;;;;;;;6.63;95.93;99648.38;4992246;28;20383;-87
2021/08/27 14:46:33;;;;;;;;;;;;;;;6.63;96.25;99655.41;4974791;28;19928;-87
2021/08/27 14:48:58;;;;;;;;;;;;;;;6.64;96.62;99657.16;4990615;28;19925;-86
2021/08/27 14:51:24;;;;;;;;;;;;;;;6.66;96.37;99656.19;4974676;28;20432;-86
2021/08/27 14:53:49;;;;;;;;;;;;;;;6.70;95.78;99657.84;4991191;28;19922;-88
2021/08/27 14:56:15;;;;;;;;;;;;;;;6.72;96.05;99665.69;4991735;28;19929;-85
2021/08/27 14:58:40;;;;;;;;;;;;;;;6.89;95.68;99673.97;4990618;28;20308;-86
2021/08/27 15:01:06;;;;;;;;;;;;;;;6.78;95.98;99669.91;4992049;28;19925;-87
2021/08/27 15:03:31;;;;;;;;;;;;;;;6.90;97.58;99669.56;4966664;28;19965;-87
2021/08/27 15:05:56;;;;;;;;;;;;;;;6.84;96.18;99672.38;4965006;28;19977;-87
2021/08/27 15:08:21;;;;;;;;;;;;;;;6.93;96.58;99676.50;4965509;28;19949;-88
2021/08/27 15:10:47;;;;;;;;;;;;;;;6.89;95.41;99673.09;4981571;28;19961;-87
2021/08/27 15:13:12;;;;;;;;;;;;;;;6.97;95.97;99678.97;4983011;28;20381;-87
2021/08/27 15:15:37;;;;;;;;;;;;;;;6.81;95.73;99677.72;4968093;28;19918;-87
2021/08/27 15:18:03;;;;;;;;;;;;;;;6.89;96.38;99679.25;4967685;28;19921;-87
2021/08/27 15:20:30;;;;;;;;;;;;;;;6.91;95.80;99677.41;4984440;28;19921;-87
2021/08/27 15:22:56;;;;;;;;;;;;;;;6.83;95.88;99678.53;4968285;28;19921;-88
2021/08/27 15:25:22;;;;;;;;;;;;;;;6.87;95.63;99683.66;4969390;28;20396;-85
2021/08/27 15:27:47;;;;;;;;;;;;;;;6.82;95.37;99682.09;4968652;28;19922;-87
2021/08/27 15:30:12;;;;;;;;;;;;;;;6.78;95.66;99685.69;4968487;28;20324;-87
2021/08/27 15:32:38;;;;;;;;;;;;;;;6.77;95.04;99678.72;4968311;28;19918;-88
2021/08/27 15:35:03;;;;;;;;;;;;;;;6.65;95.82;99686.06;4968016;28;20301;-88
2021/08/27 15:37:28;;;;;;;;;;;;;;;6.68;96.24;99679.84;4967872;28;19918;-88
2021/08/27 15:39:54;;;;;;;;;;;;;;;6.59;96.00;99675.72;4984372;28;19943;-87
2021/08/27 15:42:19;;;;;;;;;;;;;;;6.70;95.27;99675.38;4968790;28;19918;-88
2021/08/27 15:44:44;;;;;;;;;;;;;;;6.61;95.72;99673.91;4967896;28;19919;-89
2021/08/27 15:47:10;;;;;;;;;;;;;;;6.67;95.68;99670.22;4985712;28;19933;-89
2021/08/27 15:49:35;;;;;;;;;;;;;;;6.62;95.61;99670.38;4967636;28;19918;-89
2021/08/27 15:52:00;;;;;;;;;;;;;;;6.66;96.03;99661.44;4968894;28;19920;-90
2021/08/27 15:54:26;;;;;;;;;;;;;;;6.69;95.86;99671.03;4968192;28;20006;-89
2021/08/27 15:56:52;;;;;;;;;;;;;;;6.62;95.76;99661.59;4985601;28;19922;-89
2021/08/27 15:59:18;;;;;;;;;;;;;;;6.69;95.72;99666.63;4984856;28;20001;-89
2021/08/27 16:01:44;;;;;;;;;;;;;;;6.60;95.60;99661.63;4968991;28;19918;-90
2021/08/27 16:04:09;;;;;;;;;;;;;;;6.61;95.74;99668.63;4965884;28;19929;-89
2021/08/27 16:06:38;;;;;;;;;;;;;;;6.72;94.83;99656.00;4967786;28;19925;-89
2021/08/27 16:09:03;;;;;;;;;;;;;;;6.75;95.62;99662.09;4967770;28;19918;-90
2021/08/27 16:11:28;;;;;;;;;;;;;;;6.69;95.10;99656.09;4966770;28;19926;-90
2021/08/27 16:13:54;;;;;;;;;;;;;;;6.90;95.14;99665.13;4967211;28;19925;-88
2021/08/27 16:16:19;;;;;;;;;;;;;;;6.71;95.20;99654.28;4967477;28;19922;-89
2021/08/27 16:18:47;;;;;;;;;;;;;;;6.71;95.70;99653.44;4969184;28;19925;-89
2021/08/27 16:21:13;;;;;;;;;;;;;;;6.72;95.27;99639.38;4968295;28;19961;-89
2021/08/27 16:23:44;;;;;;;;;;;;;;;6.67;95.57;99636.84;4965061;28;19953;-88
2021/08/27 16:26:10;;;;;;;;;;;;;;;6.61;96.03;99647.56;4984276;28;19961;-88
2021/08/27 16:28:35;;;;;;;;;;;;;;;6.64;96.17;99646.63;4969121;28;19918;-89
2021/08/27 16:31:01;;;;;;;;;;;;;;;6.59;96.17;99648.50;4968808;28;20077;-89
2021/08/27 16:33:26;;;;;;;;;;;;;;;6.56;96.40;99646.84;4985603;28;20381;-90
2021/08/27 16:35:51;;;;;;;;;;;;;;;6.55;96.93;99651.22;4967382;28;19969;-88
2021/08/27 16:38:16;;;;;;;;;;;;;;;6.84;96.75;99651.28;4986681;28;19985;-88
2021/08/27 16:40:42;;;;;;;;;;;;;;;6.76;95.87;99650.66;4965788;28;20012;-89
2021/08/27 16:43:07;;;;;;;;;;;;;;;6.71;95.40;99649.00;4970379;28;19989;-90
2021/08/27 16:45:32;;;;;;;;;;;;;;;6.73;95.51;99651.59;4965493;28;19925;-89
2021/08/27 16:47:58;;;;;;;;;;;;;;;6.64;95.68;99658.00;4967698;28;19918;-87
2021/08/27 16:50:24;;;;;;;;;;;;;;;6.70;95.91;99652.56;4985971;28;20397;-90
2021/08/27 16:52:50;;;;;;;;;;;;;;;6.73;95.71;99656.88;4966225;28;20329;-89
2021/08/27 16:55:16;;;;;;;;;;;;;;;6.66;96.28;99656.19;4966163;28;20288;-89
2021/08/27 16:57:43;;;;;;;;;;;;;;;6.62;96.54;99657.19;4967645;28;19917;-88
2021/08/27 17:00:10;;;;;;;;;;;;;;;6.76;96.91;99653.28;4984046;28;19925;-90
2021/08/27 17:02:36;;;;;;;;;;;;;;;6.79;95.25;99661.09;4967757;28;20355;-88
2021/08/27 17:05:02;;;;;;;;;;;;;;;6.81;95.22;99662.81;4982863;28;19928;-90
2021/08/27 17:07:27;;;;;;;;;;;;;;;6.66;95.83;99664.09;4966193;28;19922;-89
2021/08/27 17:09:53;;;;;;;;;;;;;;;6.70;96.17;99657.84;4965724;28;20052;-89
2021/08/27 17:12:18;;;;;;;;;;;;;;;6.76;95.26;99661.19;4964378;28;19926;-89
2021/08/27 17:14:43;;;;;;;;;;;;;;;6.76;95.27;99661.19;4967138;28;19972;-89
2021/08/27 17:17:09;;;;;;;;;;;;;;;6.72;95.07;99660.44;4966474;28;19926;-88
2021/08/27 17:19:34;;;;;;;;;;;;;;;6.78;95.47;99659.38;4965235;28;19973;-89
2021/08/27 17:21:59;;;;;;;;;;;;;;;6.84;95.83;99667.09;4964930;28;20368;-89
2021/08/27 17:24:26;;;;;;;;;;;;;;;6.78;94.86;99677.81;4979769;28;20471;-89
2021/08/27 17:26:52;;;;;;;;;;;;;;;6.90;94.91;99674.81;4965929;28;19918;-88
2021/08/27 17:29:17;;;;;;;;;;;;;;;6.75;95.11;99673.50;4963038;28;19962;-90
2021/08/27 17:31:42;;;;;;;;;;;;;;;6.75;94.73;99685.78;4982728;28;20369;-89
2021/08/27 17:34:08;;;;;;;;;;;;;;;6.69;95.13;99677.16;4967122;28;19930;-89
2021/08/27 17:36:33;;;;;;;;;;;;;;;6.70;95.58;99678.91;4964058;28;19924;-88
2021/08/27 17:38:58;;;;;;;;;;;;;;;6.82;95.48;99676.81;4962730;28;19932;-89
2021/08/27 17:41:23;;;;;;;;;;;;;;;6.77;95.25;99679.59;4961506;28;19977;-89
2021/08/27 17:43:49;;;;;;;;;;;;;;;6.76;95.09;99671.72;4965588;28;20385;-90
2021/08/27 17:46:14;;;;;;;;;;;;;;;6.74;95.10;99674.41;4960747;28;19968;-88
2021/08/27 17:48:39;;;;;;;;;;;;;;;6.66;95.42;99681.66;4964546;28;19926;-88
2021/08/27 17:51:05;;;;;;;;;;;;;;;6.75;95.89;99681.41;4963336;28;19942;-90
2021/08/27 17:53:30;;;;;;;;;;;;;;;6.75;95.01;99681.41;4960685;28;19977;-89
2021/08/27 17:55:57;;;;;;;;;;;;;;;6.82;95.17;99679.44;4962303;28;20018;-89
2021/08/27 17:58:22;;;;;;;;;;;;;;;6.69;95.45;99684.22;4963712;28;19974;-89
2021/08/27 18:00:48;;;;;;;;;;;;;;;6.77;95.27;99679.59;4961051;28;19984;-88
2021/08/27 18:03:14;;;;;;;;;;;;;;;6.72;95.23;99687.63;4961608;28;19922;-88
2021/08/27 18:05:39;;;;;;;;;;;;;;;6.80;94.67;99690.03;4961323;28;19918;-87
2021/08/27 18:08:05;;;;;;;;;;;;;;;6.78;94.24;99696.25;4961362;28;19965;-90
2021/08/27 18:10:30;;;;;;;;;;;;;;;6.73;95.42;99694.63;4960531;28;19925;-90
2021/08/27 18:12:56;;;;;;;;;;;;;;;6.82;94.99;99690.84;4963359;28;20378;-88
2021/08/27 18:15:21;;;;;;;;;;;;;;;6.78;95.27;99696.25;4961497;28;20294;-90
2021/08/27 18:17:46;;;;;;;;;;;;;;;6.84;95.04;99701.34;4965679;28;20301;-89
2021/08/27 18:20:12;;;;;;;;;;;;;;;6.73;94.98;99699.88;4963186;28;20270;-89
2021/08/27 18:22:37;;;;;;;;;;;;;;;6.78;94.93;99696.25;4960925;28;19922;-89
2021/08/27 18:25:03;;;;;;;;;;;;;;;6.73;95.31;99694.63;4958583;28;19929;-90
2021/08/27 18:27:28;;;;;;;;;;;;;;;6.81;95.31;99696.16;4965334;28;19926;-88
2021/08/27 18:29:55;;;;;;;;;;;;;;;6.78;94.28;99701.50;4960783;28;19918;-87
2021/08/27 18:32:21;;;;;;;;;;;;;;;6.75;94.50;99701.59;4961299;28;20018;-88
2021/08/27 18:34:46;;;;;;;;;;;;;;;6.75;94.63;99701.59;4961750;28;20021;-89
2021/08/27 18:37:12;;;;;;;;;;;;;;;6.70;95.38;99705.22;4960141;28;19914;-87
2021/08/27 18:39:38;;;;;;;;;;;;;;;6.84;94.67;99702.19;4963345;28;19934;-89
2021/08/27 18:42:04;;;;;;;;;;;;;;;6.81;94.21;99701.41;4965223;28;19926;-89
2021/08/27 18:44:29;;;;;;;;;;;;;;;6.73;94.45;99697.25;4961574;28;19922;-88
2021/08/27 18:46:57;;;;;;;;;;;;;;;6.72;95.05;99698.16;4965260;28;19929;-87
2021/08/27 18:49:22;;;;;;;;;;;;;;;6.71;95.54;99706.94;4966653;28;19928;-89
2021/08/27 18:51:47;;;;;;;;;;;;;;;6.90;94.71;99701.16;4964499;28;20008;-88
2021/08/27 18:54:13;;;;;;;;;;;;;;;6.86;94.42;99704.78;4987677;28;19940;-88
2021/08/27 18:56:38;;;;;;;;;;;;;;;6.85;94.27;99709.19;4970477;28;19918;-87
2021/08/27 18:59:03;;;;;;;;;;;;;;;6.81;94.05;99719.84;4970486;28;20314;-88
2021/08/27 19:01:30;;;;;;;;;;;;;;;6.75;94.22;99712.13;4987879;28;19918;-88
2021/08/27 19:03:56;;;;;;;;;;;;;;;6.72;94.61;99716.59;4968806;28;19926;-92